Time;durP1;ratioP1;P1;durP2;ratioP2;P2;SDS_P1;SDS_P2;PMS_P1;PMS_P2;Temp;Humidity;BMP_temperature;BMP_pressure;BME280_temperature;BME280_humidity;BME280_pressure;Samples;Min_cycle;Max_cycle;Signal;HPM_P1;HPM_P2
2022/12/03 00:00:47;;;;;;;42.07;18.03;;;;;;;;;;5005743;28;20280;-69
2022/12/03 00:03:12;;;;;;;40.37;17.97;;;;;;;;;;5013071;28;20206;-69
2022/12/03 00:05:38;;;;;;;38.73;16.63;;;;;;;;;;5016579;28;20190;-69
2022/12/03 00:08:03;;;;;;;43.27;18.13;;;;;;;;;;5011499;28;20197;-69
2022/12/03 00:10:29;;;;;;;41.67;18.77;;;;;;;;;;5019606;28;20265;-69
2022/12/03 00:12:54;;;;;;;40.40;17.30;;;;;;;;;;5013925;28;20205;-70
2022/12/03 00:15:19;;;;;;;42.00;18.90;;;;;;;;;;5011987;28;20191;-69
2022/12/03 00:17:45;;;;;;;36.93;16.60;;;;;;;;;;5018055;28;20617;-70
2022/12/03 00:20:18;;;;;;;42.07;17.73;;;;;;;;;;5026754;28;20190;-69
2022/12/03 00:22:43;;;;;;;41.20;17.00;;;;;;;;;;5022629;28;20197;-69
2022/12/03 00:25:09;;;;;;;42.33;19.83;;;;;;;;;;5023684;28;20257;-69
2022/12/03 00:27:34;;;;;;;40.30;18.37;;;;;;;;;;5016865;28;20508;-69
2022/12/03 00:29:59;;;;;;;40.60;17.27;;;;;;;;;;5010138;28;20677;-69
2022/12/03 00:32:24;;;;;;;42.47;18.20;;;;;;;;;;5019786;28;20182;-69
2022/12/03 00:34:50;;;;;;;43.43;16.67;;;;;;;;;;5024436;28;20190;-69
2022/12/03 00:37:15;;;;;;;40.60;18.10;;;;;;;;;;5023484;28;20190;-69
2022/12/03 00:39:40;;;;;;;38.77;18.30;;;;;;;;;;5014368;28;20229;-70
2022/12/03 00:42:06;;;;;;;41.50;16.10;;;;;;;;;;5015530;28;20632;-69
2022/12/03 00:44:31;;;;;;;43.17;18.63;;;;;;;;;;5011280;28;20221;-69
2022/12/03 00:46:56;;;;;;;42.23;19.17;;;;;;;;;;5021893;28;20187;-67
2022/12/03 00:49:22;;;;;;;47.27;18.17;;;;;;;;;;5025655;28;20273;-69
2022/12/03 00:51:47;;;;;;;41.33;16.77;;;;;;;;;;5027699;28;20289;-68
2022/12/03 00:54:12;;;;;;;41.63;17.13;;;;;;;;;;5024903;28;20186;-69
2022/12/03 00:56:38;;;;;;;42.13;18.87;;;;;;;;;;5025498;28;20698;-69
2022/12/03 00:59:03;;;;;;;44.60;18.67;;;;;;;;;;5027686;28;20182;-69
2022/12/03 01:01:28;;;;;;;41.93;18.27;;;;;;;;;;5025921;28;20602;-69
2022/12/03 01:03:54;;;;;;;41.37;18.63;;;;;;;;;;5027379;28;20209;-69
2022/12/03 01:06:19;;;;;;;38.23;18.30;;;;;;;;;;5025063;28;20190;-69
2022/12/03 01:08:44;;;;;;;41.10;19.07;;;;;;;;;;5035493;28;20177;-69
2022/12/03 01:11:36;;;;;;;42.73;19.03;;;;;;;;;;5026793;28;20221;-69
2022/12/03 01:13:55;;;;;;;36.50;17.17;;;;;;;;;;5027144;28;20280;-69
2022/12/03 01:16:20;;;;;;;42.17;18.40;;;;;;;;;;5024622;28;20362;-69
2022/12/03 01:18:46;;;;;;;40.07;18.07;;;;;;;;;;5018913;28;20183;-69
2022/12/03 01:21:11;;;;;;;36.57;18.27;;;;;;;;;;5029130;28;20193;-69
2022/12/03 01:23:36;;;;;;;38.50;18.23;;;;;;;;;;5027506;28;20217;-69
2022/12/03 01:26:02;;;;;;;42.30;18.57;;;;;;;;;;5026930;28;20186;-69
2022/12/03 01:28:28;;;;;;;39.07;19.60;;;;;;;;;;5021966;28;20201;-69
2022/12/03 01:33:37;;;;;;;40.20;17.90;;;;;;;;;;5024978;28;20181;-69
2022/12/03 01:36:03;;;;;;;45.03;19.80;;;;;;;;;;5028620;28;20189;-69
2022/12/03 01:38:28;;;;;;;38.77;17.53;;;;;;;;;;5021629;28;20193;-70
2022/12/03 01:40:53;;;;;;;42.03;19.43;;;;;;;;;;5030837;28;20197;-69
2022/12/03 01:43:19;;;;;;;41.33;18.30;;;;;;;;;;5021650;28;20550;-69
2022/12/03 01:45:44;;;;;;;41.63;19.40;;;;;;;;;;5025262;28;20221;-70
2022/12/03 01:48:15;;;;;;;41.90;18.93;;;;;;;;;;5029157;28;20319;-69
2022/12/03 01:50:41;;;;;;;40.60;19.47;;;;;;;;;;5010379;28;20585;-69
2022/12/03 01:53:10;;;;;;;42.57;20.00;;;;;;;;;;5020908;28;20269;-69
2022/12/03 01:55:36;;;;;;;40.00;18.70;;;;;;;;;;5027431;28;20378;-70
2022/12/03 01:58:03;;;;;;;40.73;19.17;;;;;;;;;;5020668;28;20189;-69
2022/12/03 02:00:29;;;;;;;39.83;18.77;;;;;;;;;;5022149;28;20475;-69
2022/12/03 02:02:58;;;;;;;41.13;20.10;;;;;;;;;;5024534;28;20315;-69
2022/12/03 02:05:26;;;;;;;43.80;20.43;;;;;;;;;;5012768;28;20606;-69
2022/12/03 02:07:52;;;;;;;40.83;19.80;;;;;;;;;;5018497;28;20507;-69
2022/12/03 02:10:22;;;;;;;46.47;21.00;;;;;;;;;;5027386;28;20218;-68
2022/12/03 02:12:53;;;;;;;45.43;21.20;;;;;;;;;;5022896;28;20171;-68
2022/12/03 02:15:19;;;;;;;44.80;20.83;;;;;;;;;;5041952;28;20207;-69
2022/12/03 02:17:44;;;;;;;42.03;20.77;;;;;;;;;;5010849;28;20186;-69
2022/12/03 02:20:11;;;;;;;43.77;21.43;;;;;;;;;;5028902;28;20715;-69
2022/12/03 02:22:49;;;;;;;46.00;21.20;;;;;;;;;;5020818;28;20495;-69
2022/12/03 02:25:19;;;;;;;51.60;22.57;;;;;;;;;;5022106;28;20184;-69
2022/12/03 02:27:46;;;;;;;46.23;21.77;;;;;;;;;;5017552;28;20202;-69
2022/12/03 02:30:14;;;;;;;48.23;22.90;;;;;;;;;;5017894;28;20187;-70
2022/12/03 02:32:40;;;;;;;50.27;23.60;;;;;;;;;;5019024;28;20201;-69
2022/12/03 02:35:11;;;;;;;47.43;22.30;;;;;;;;;;5019298;28;20179;-69
2022/12/03 02:37:36;;;;;;;47.97;22.30;;;;;;;;;;5021516;28;20237;-70
2022/12/03 02:40:06;;;;;;;50.77;22.43;;;;;;;;;;5028886;28;20260;-69
2022/12/03 02:42:34;;;;;;;53.83;23.07;;;;;;;;;;5022931;28;20207;-69
2022/12/03 02:45:09;;;;;;;51.40;23.63;;;;;;;;;;5025172;28;20231;-69
2022/12/03 02:47:41;;;;;;;54.60;24.10;;;;;;;;;;5009486;28;20583;-69
2022/12/03 02:50:08;;;;;;;52.03;23.90;;;;;;;;;;5021636;28;20188;-69
2022/12/03 02:52:34;;;;;;;48.73;23.63;;;;;;;;;;5024050;28;20502;-69
2022/12/03 02:55:01;;;;;;;43.00;20.40;;;;;;;;;;5024561;28;20213;-69
2022/12/03 02:57:27;;;;;;;51.20;22.40;;;;;;;;;;5031880;28;20265;-69
2022/12/03 02:59:52;;;;;;;55.87;22.83;;;;;;;;;;5020589;28;20273;-69
2022/12/03 03:02:18;;;;;;;50.20;22.33;;;;;;;;;;5031832;28;20322;-69
2022/12/03 03:04:43;;;;;;;47.60;22.27;;;;;;;;;;5025865;28;20232;-69
2022/12/03 03:07:09;;;;;;;43.70;21.33;;;;;;;;;;5024104;28;20201;-69
2022/12/03 03:09:35;;;;;;;50.37;23.07;;;;;;;;;;5023432;28;20178;-69
2022/12/03 03:12:00;;;;;;;45.67;22.10;;;;;;;;;;5036126;28;20696;-69
2022/12/03 03:14:26;;;;;;;45.97;21.27;;;;;;;;;;5025120;28;20201;-69
2022/12/03 03:16:57;;;;;;;45.63;20.20;;;;;;;;;;5034554;28;20188;-69
2022/12/03 03:19:24;;;;;;;46.70;22.77;;;;;;;;;;5030184;28;20182;-69
2022/12/03 03:21:49;;;;;;;47.33;20.97;;;;;;;;;;5031567;28;20504;-69
2022/12/03 03:24:15;;;;;;;43.70;21.97;;;;;;;;;;5017372;28;20186;-69
2022/12/03 03:26:40;;;;;;;43.17;20.77;;;;;;;;;;5020008;28;20187;-69
2022/12/03 03:29:06;;;;;;;46.70;21.90;;;;;;;;;;5015867;28;20256;-70
2022/12/03 03:31:31;;;;;;;43.53;20.50;;;;;;;;;;5028188;28;20218;-69
2022/12/03 03:33:56;;;;;;;42.40;20.73;;;;;;;;;;5013901;28;20247;-69
2022/12/03 03:36:22;;;;;;;43.23;20.77;;;;;;;;;;5024929;28;20671;-68
2022/12/03 03:38:48;;;;;;;43.33;20.13;;;;;;;;;;5026188;28;20185;-69
2022/12/03 03:41:14;;;;;;;43.57;19.57;;;;;;;;;;5015697;28;20186;-69
2022/12/03 03:43:41;;;;;;;42.60;20.40;;;;;;;;;;5018470;28;20294;-69
2022/12/03 03:46:08;;;;;;;35.13;18.57;;;;;;;;;;5023728;28;20319;-69
2022/12/03 03:48:34;;;;;;;37.93;18.03;;;;;;;;;;5028407;28;20182;-69
2022/12/03 03:51:00;;;;;;;40.20;19.63;;;;;;;;;;5022912;28;20205;-69
2022/12/03 03:53:25;;;;;;;40.03;18.80;;;;;;;;;;5019152;28;20295;-69
2022/12/03 03:55:51;;;;;;;35.73;17.93;;;;;;;;;;5027868;28;20257;-69
2022/12/03 03:58:16;;;;;;;35.27;18.40;;;;;;;;;;5022717;28;20175;-69
2022/12/03 04:00:43;;;;;;;36.27;17.67;;;;;;;;;;5010298;28;20242;-69
2022/12/03 04:03:09;;;;;;;36.67;18.83;;;;;;;;;;5026211;28;20230;-69
2022/12/03 04:05:35;;;;;;;36.87;18.77;;;;;;;;;;5022476;28;20272;-70
2022/12/03 04:08:00;;;;;;;36.40;17.87;;;;;;;;;;5015716;28;20575;-69
2022/12/03 04:13:10;;;;;;;38.53;19.33;;;;;;;;;;5021348;28;20244;-69
2022/12/03 04:15:35;;;;;;;37.53;19.00;;;;;;;;;;5026589;28;20190;-69
2022/12/03 04:20:44;;;;;;;36.07;18.60;;;;;;;;;;5016318;28;20193;-69
2022/12/03 04:23:10;;;;;;;36.73;18.17;;;;;;;;;;5020665;28;20611;-69
2022/12/03 04:35:41;;;;;;;39.73;18.13;;;;;;;;;;5011714;28;20679;-69
2022/12/03 04:36:34;;;;;;;44.67;19.03;;;;;;;;;;5024456;28;20214;-69
2022/12/03 04:38:59;;;;;;;40.23;18.37;;;;;;;;;;5016027;28;20674;-69
2022/12/03 04:41:24;;;;;;;41.27;19.87;;;;;;;;;;5039142;28;20265;-69
2022/12/03 04:46:33;;;;;;;42.80;19.60;;;;;;;;;;5020805;28;20256;-69
2022/12/03 04:48:59;;;;;;;45.63;19.63;;;;;;;;;;5021292;28;20186;-69
2022/12/03 04:51:24;;;;;;;41.00;18.80;;;;;;;;;;5038773;28;20178;-69
2022/12/03 04:53:50;;;;;;;42.73;18.70;;;;;;;;;;5026348;28;20178;-69
2022/12/03 04:56:15;;;;;;;42.00;19.07;;;;;;;;;;5026473;28;20637;-69
2022/12/03 04:58:41;;;;;;;39.77;18.73;;;;;;;;;;5025492;28;20198;-69
2022/12/03 05:01:06;;;;;;;42.47;18.60;;;;;;;;;;5028356;28;20308;-69
2022/12/03 05:03:31;;;;;;;43.70;19.07;;;;;;;;;;5029792;28;20547;-69
2022/12/03 05:05:57;;;;;;;44.00;18.97;;;;;;;;;;5037817;28;20676;-69
2022/12/03 05:08:22;;;;;;;43.63;19.73;;;;;;;;;;5037024;28;20208;-69
2022/12/03 05:10:47;;;;;;;42.07;20.47;;;;;;;;;;5037331;28;20228;-69
2022/12/03 05:13:12;;;;;;;48.23;20.80;;;;;;;;;;5045079;28;20208;-69
2022/12/03 05:15:38;;;;;;;42.93;20.40;;;;;;;;;;5022832;28;20189;-72
2022/12/03 05:18:03;;;;;;;49.23;20.27;;;;;;;;;;5033570;28;20182;-69
2022/12/03 05:20:40;;;;;;;40.73;19.47;;;;;;;;;;5031369;28;20190;-69
2022/12/03 05:23:07;;;;;;;49.80;19.67;;;;;;;;;;5028206;28;20197;-70
2022/12/03 05:25:33;;;;;;;43.20;19.70;;;;;;;;;;5030006;28;20182;-69
2022/12/03 05:27:58;;;;;;;45.90;20.23;;;;;;;;;;5028392;28;20271;-73
2022/12/03 05:30:24;;;;;;;51.37;21.53;;;;;;;;;;5015427;28;20191;-68
2022/12/03 05:32:49;;;;;;;40.77;18.93;;;;;;;;;;5025613;28;20626;-69
2022/12/03 05:35:15;;;;;;;47.30;20.33;;;;;;;;;;5017665;28;20286;-69
2022/12/03 05:37:40;;;;;;;44.43;20.83;;;;;;;;;;5017307;28;20183;-69
2022/12/03 05:40:06;;;;;;;48.73;21.27;;;;;;;;;;5020724;28;20178;-69
2022/12/03 05:45:15;;;;;;;47.60;20.43;;;;;;;;;;5014361;28;20189;-69
2022/12/03 05:47:56;;;;;;;46.33;22.00;;;;;;;;;;5001147;28;22285;-69
2022/12/03 05:50:24;;;;;;;49.90;20.53;;;;;;;;;;5016150;28;20642;-69
2022/12/03 05:52:50;;;;;;;46.27;21.17;;;;;;;;;;5027493;28;20231;-69
2022/12/03 05:55:16;;;;;;;50.60;22.27;;;;;;;;;;5028142;28;20480;-69
2022/12/03 05:57:42;;;;;;;50.20;22.40;;;;;;;;;;5020679;28;20530;-69
2022/12/03 06:00:31;;;;;;;47.90;21.70;;;;;;;;;;5018633;28;20206;-66
2022/12/03 06:02:56;;;;;;;48.20;19.77;;;;;;;;;;5023748;28;20391;-69
2022/12/03 06:05:23;;;;;;;48.10;21.40;;;;;;;;;;5013868;28;20288;-69
2022/12/03 06:07:50;;;;;;;45.17;19.27;;;;;;;;;;5015177;28;20195;-69
2022/12/03 06:10:22;;;;;;;50.70;21.13;;;;;;;;;;5020434;28;20273;-69
2022/12/03 06:12:47;;;;;;;42.57;19.23;;;;;;;;;;5019442;28;20682;-69
2022/12/03 06:15:13;;;;;;;52.63;20.80;;;;;;;;;;5035296;28;20240;-68
2022/12/03 06:17:39;;;;;;;51.23;21.30;;;;;;;;;;5022617;28;20191;-69
2022/12/03 06:20:05;;;;;;;48.70;20.53;;;;;;;;;;5014736;28;20349;-69
2022/12/03 06:22:30;;;;;;;44.07;19.43;;;;;;;;;;5018494;28;20268;-69
2022/12/03 06:24:55;;;;;;;46.10;19.50;;;;;;;;;;5015570;28;20693;-69
2022/12/03 06:27:21;;;;;;;43.93;19.07;;;;;;;;;;5018552;28;20720;-69
2022/12/03 06:29:46;;;;;;;50.37;20.53;;;;;;;;;;5011772;28;20547;-69
2022/12/03 06:32:11;;;;;;;54.57;19.63;;;;;;;;;;5015597;28;20630;-69
2022/12/03 06:34:37;;;;;;;43.80;18.83;;;;;;;;;;5014396;28;20179;-68
2022/12/03 06:37:02;;;;;;;48.67;20.47;;;;;;;;;;5029295;28;20182;-68
2022/12/03 06:39:28;;;;;;;47.07;19.60;;;;;;;;;;5020802;28;20639;-68
2022/12/03 06:41:53;;;;;;;48.83;20.30;;;;;;;;;;5026666;28;20267;-68
2022/12/03 06:44:18;;;;;;;47.07;19.67;;;;;;;;;;5026730;28;20708;-68
2022/12/03 06:46:44;;;;;;;50.83;19.47;;;;;;;;;;5013173;28;20561;-68
2022/12/03 06:49:09;;;;;;;45.93;18.13;;;;;;;;;;5016224;28;20224;-68
2022/12/03 06:51:35;;;;;;;44.13;18.57;;;;;;;;;;5024608;28;20692;-68
2022/12/03 06:54:01;;;;;;;57.20;18.93;;;;;;;;;;5020529;28;20237;-68
2022/12/03 06:56:26;;;;;;;56.03;19.97;;;;;;;;;;5023695;28;20196;-69
2022/12/03 06:58:52;;;;;;;60.20;23.20;;;;;;;;;;5017597;28;20187;-68
2022/12/03 07:01:17;;;;;;;54.57;19.97;;;;;;;;;;5009713;28;20509;-69
2022/12/03 07:03:43;;;;;;;60.83;22.07;;;;;;;;;;5019851;28;20608;-68
2022/12/03 07:06:08;;;;;;;60.47;22.17;;;;;;;;;;5016934;28;20182;-68
2022/12/03 07:08:33;;;;;;;59.90;20.53;;;;;;;;;;5024398;28;20195;-69
2022/12/03 07:10:59;;;;;;;56.60;21.07;;;;;;;;;;5028648;28;20222;-69
2022/12/03 07:13:24;;;;;;;64.83;22.07;;;;;;;;;;5028431;28;20582;-69
2022/12/03 07:15:49;;;;;;;63.93;22.10;;;;;;;;;;5024487;28;20190;-68
2022/12/03 07:18:15;;;;;;;60.60;22.50;;;;;;;;;;5022309;28;20194;-69
2022/12/03 07:20:41;;;;;;;59.37;20.90;;;;;;;;;;5022645;28;20229;-68
2022/12/03 07:23:06;;;;;;;63.23;22.30;;;;;;;;;;5028070;28;20201;-69
2022/12/03 07:25:31;;;;;;;68.17;22.87;;;;;;;;;;5023585;28;20270;-69
2022/12/03 07:27:57;;;;;;;66.30;22.27;;;;;;;;;;5010330;28;20187;-69
2022/12/03 07:30:23;;;;;;;65.60;22.80;;;;;;;;;;5013040;28;20218;-68
2022/12/03 07:32:49;;;;;;;62.37;22.27;;;;;;;;;;5014682;28;20187;-68
2022/12/03 07:35:14;;;;;;;65.10;21.90;;;;;;;;;;5013229;28;20193;-68
2022/12/03 07:37:39;;;;;;;67.53;23.80;;;;;;;;;;5017557;28;20182;-68
2022/12/03 07:40:05;;;;;;;61.70;23.20;;;;;;;;;;5012648;28;20207;-68
2022/12/03 07:42:31;;;;;;;58.00;22.43;;;;;;;;;;5011051;28;20226;-68
2022/12/03 07:44:56;;;;;;;61.00;21.67;;;;;;;;;;5010968;28;20641;-69
2022/12/03 07:47:21;;;;;;;58.83;20.90;;;;;;;;;;5008485;28;20236;-68
2022/12/03 07:49:47;;;;;;;59.43;21.87;;;;;;;;;;5023398;28;20262;-69
2022/12/03 07:52:12;;;;;;;63.30;23.20;;;;;;;;;;5013351;28;20261;-68
2022/12/03 07:54:37;;;;;;;57.13;21.40;;;;;;;;;;5010991;28;20289;-68
2022/12/03 07:57:03;;;;;;;65.20;22.60;;;;;;;;;;5018539;28;20186;-68
2022/12/03 07:59:28;;;;;;;56.53;21.53;;;;;;;;;;5025375;28;20205;-70
2022/12/03 08:01:54;;;;;;;58.40;21.57;;;;;;;;;;5023734;28;20570;-68
2022/12/03 08:04:20;;;;;;;56.23;20.37;;;;;;;;;;5011119;28;20205;-68
2022/12/03 08:06:45;;;;;;;57.13;19.73;;;;;;;;;;5017236;28;20182;-68
2022/12/03 08:09:11;;;;;;;54.00;20.40;;;;;;;;;;5007663;28;20657;-68
2022/12/03 08:11:36;;;;;;;49.00;19.40;;;;;;;;;;5015737;28;20190;-68
2022/12/03 08:14:10;;;;;;;52.90;19.57;;;;;;;;;;5015922;28;20236;-68
2022/12/03 08:16:37;;;;;;;55.97;21.23;;;;;;;;;;5011935;28;20186;-69
2022/12/03 08:19:08;;;;;;;59.53;21.67;;;;;;;;;;5007173;28;20179;-68
2022/12/03 08:21:35;;;;;;;51.33;19.50;;;;;;;;;;5009856;28;20242;-69
2022/12/03 08:24:12;;;;;;;52.47;19.33;;;;;;;;;;5015523;28;20233;-68
2022/12/03 08:26:37;;;;;;;56.33;21.37;;;;;;;;;;5008141;28;20601;-68
2022/12/03 08:29:07;;;;;;;48.63;19.33;;;;;;;;;;5013560;28;20186;-69
2022/12/03 08:31:33;;;;;;;49.40;19.67;;;;;;;;;;5007964;28;20197;-68
2022/12/03 08:34:13;;;;;;;58.83;20.53;;;;;;;;;;5008183;28;20179;-68
2022/12/03 08:36:39;;;;;;;54.87;19.53;;;;;;;;;;5010805;28;20655;-68
2022/12/03 08:39:25;;;;;;;66.23;21.20;;;;;;;;;;5008197;28;20182;-68
2022/12/03 08:44:40;;;;;;;58.13;21.10;;;;;;;;;;5009325;28;20272;-68
2022/12/03 08:47:15;;;;;;;59.83;22.80;;;;;;;;;;5007515;28;20623;-68
2022/12/03 08:49:43;;;;;;;58.67;22.77;;;;;;;;;;5004999;28;20268;-68
2022/12/03 08:52:13;;;;;;;61.17;22.23;;;;;;;;;;5006595;28;21712;-68
2022/12/03 08:54:40;;;;;;;57.90;22.17;;;;;;;;;;5008031;28;20204;-68
2022/12/03 08:57:26;;;;;;;65.50;23.13;;;;;;;;;;5007515;28;20269;-68
2022/12/03 09:00:12;;;;;;;54.40;20.50;;;;;;;;;;5006938;28;20209;-68
2022/12/03 09:02:44;;;;;;;58.10;21.10;;;;;;;;;;5011994;28;20209;-69
2022/12/03 09:05:25;;;;;;;59.90;22.00;;;;;;;;;;5005888;28;20194;-69
2022/12/03 09:07:50;;;;;;;57.10;19.97;;;;;;;;;;5004113;28;20190;-69
2022/12/03 09:10:15;;;;;;;68.17;22.50;;;;;;;;;;5010472;28;20231;-69
2022/12/03 09:12:41;;;;;;;64.03;22.83;;;;;;;;;;5015154;28;20518;-69
2022/12/03 09:15:07;;;;;;;58.67;22.20;;;;;;;;;;5008307;28;20385;-69
2022/12/03 09:17:32;;;;;;;61.27;22.83;;;;;;;;;;5012042;28;20285;-68
2022/12/03 09:19:58;;;;;;;56.60;21.63;;;;;;;;;;5019833;28;20359;-68
2022/12/03 09:22:23;;;;;;;65.17;22.33;;;;;;;;;;5011249;28;20206;-68
2022/12/03 09:24:49;;;;;;;62.27;23.47;;;;;;;;;;5008166;28;20231;-69
2022/12/03 09:27:14;;;;;;;73.63;24.10;;;;;;;;;;5033510;28;20265;-69
2022/12/03 09:29:39;;;;;;;64.53;24.20;;;;;;;;;;5043973;28;20186;-68
2022/12/03 09:32:04;;;;;;;66.80;24.53;;;;;;;;;;5023214;28;20226;-68
2022/12/03 09:34:30;;;;;;;65.97;21.07;;;;;;;;;;5022130;28;20195;-68
2022/12/03 09:36:55;;;;;;;77.23;26.30;;;;;;;;;;5008726;28;20236;-69
2022/12/03 09:39:21;;;;;;;72.43;26.07;;;;;;;;;;5010350;28;20628;-69
2022/12/03 09:41:46;;;;;;;76.60;24.83;;;;;;;;;;5010924;28;20185;-69
2022/12/03 09:44:12;;;;;;;74.73;25.83;;;;;;;;;;5012863;28;20203;-66
2022/12/03 09:46:40;;;;;;;71.47;24.10;;;;;;;;;;5015561;28;20183;-68
2022/12/03 09:49:08;;;;;;;71.23;24.43;;;;;;;;;;5016693;28;20258;-66
2022/12/03 09:51:35;;;;;;;74.13;25.13;;;;;;;;;;5012475;28;20293;-68
2022/12/03 09:54:03;;;;;;;77.37;24.13;;;;;;;;;;5022460;28;20202;-67
2022/12/03 09:56:28;;;;;;;71.53;24.23;;;;;;;;;;5014214;28;20186;-66
2022/12/03 09:58:54;;;;;;;74.17;25.07;;;;;;;;;;5013109;28;20205;-67
2022/12/03 10:01:20;;;;;;;75.50;23.73;;;;;;;;;;5016193;28;20588;-67
2022/12/03 10:03:48;;;;;;;68.80;23.03;;;;;;;;;;5019464;28;20203;-67
2022/12/03 10:06:17;;;;;;;62.57;22.10;;;;;;;;;;5016928;28;20189;-67
2022/12/03 10:08:48;;;;;;;72.77;22.77;;;;;;;;;;5019288;28;20231;-67
2022/12/03 10:11:16;;;;;;;74.87;24.03;;;;;;;;;;5016921;28;20186;-67
2022/12/03 10:13:41;;;;;;;72.67;23.77;;;;;;;;;;5019016;28;20182;-67
2022/12/03 10:16:14;;;;;;;74.40;23.77;;;;;;;;;;5013574;28;20198;-67
2022/12/03 10:18:42;;;;;;;73.00;23.03;;;;;;;;;;5020564;28;20178;-67
2022/12/03 10:21:29;;;;;;;66.67;21.87;;;;;;;;;;5022344;28;20186;-67
2022/12/03 10:24:30;;;;;;;62.80;19.90;;;;;;;;;;5028778;28;20210;-67
2022/12/03 10:27:00;;;;;;;57.03;20.33;;;;;;;;;;5026362;28;20182;-67
2022/12/03 10:29:31;;;;;;;59.10;20.43;;;;;;;;;;5017867;28;20568;-67
2022/12/03 10:32:03;;;;;;;63.50;21.57;;;;;;;;;;5011721;28;20189;-67
2022/12/03 10:34:31;;;;;;;62.60;20.77;;;;;;;;;;5021800;28;20521;-67
2022/12/03 10:37:14;;;;;;;60.33;19.67;;;;;;;;;;5017448;28;20709;-67
2022/12/03 10:39:56;;;;;;;57.87;21.40;;;;;;;;;;5018417;28;20250;-67
2022/12/03 10:42:23;;;;;;;58.77;20.97;;;;;;;;;;5020014;28;20232;-67
2022/12/03 10:44:52;;;;;;;55.77;19.83;;;;;;;;;;5024923;28;20663;-67
2022/12/03 10:47:19;;;;;;;53.00;20.77;;;;;;;;;;5020678;28;20657;-67
2022/12/03 10:50:00;;;;;;;52.80;18.80;;;;;;;;;;5021489;28;20695;-67
2022/12/03 10:52:25;;;;;;;50.03;18.37;;;;;;;;;;5023824;28;20640;-67
2022/12/03 10:54:51;;;;;;;47.37;17.90;;;;;;;;;;5022906;28;20445;-67
2022/12/03 10:57:16;;;;;;;42.30;16.57;;;;;;;;;;5020880;28;20186;-67
2022/12/03 10:59:42;;;;;;;40.93;16.30;;;;;;;;;;5024517;28;20345;-67
2022/12/03 11:02:19;;;;;;;38.00;16.43;;;;;;;;;;5020614;28;20498;-67
2022/12/03 11:04:45;;;;;;;37.93;15.90;;;;;;;;;;5026475;28;20520;-67
2022/12/03 11:07:14;;;;;;;40.40;15.57;;;;;;;;;;5017003;28;20191;-67
2022/12/03 11:09:43;;;;;;;35.27;14.13;;;;;;;;;;5016147;28;20427;-67
2022/12/03 11:12:20;;;;;;;31.90;13.40;;;;;;;;;;5020052;28;20186;-67
2022/12/03 11:14:55;;;;;;;33.93;13.80;;;;;;;;;;5016233;28;20201;-67
2022/12/03 11:17:39;;;;;;;30.27;13.23;;;;;;;;;;5014546;28;20189;-67
2022/12/03 11:20:46;;;;;;;38.00;13.93;;;;;;;;;;5013389;28;20178;-67
2022/12/03 11:23:11;;;;;;;28.73;11.77;;;;;;;;;;5006930;28;20206;-67
2022/12/03 11:25:49;;;;;;;32.67;13.43;;;;;;;;;;5019451;28;20323;-67
2022/12/03 11:28:35;;;;;;;34.70;13.37;;;;;;;;;;5022225;28;20436;-67
2022/12/03 11:31:13;;;;;;;32.67;13.50;;;;;;;;;;5020738;28;20210;-69
2022/12/03 11:33:39;;;;;;;32.83;12.70;;;;;;;;;;5025591;28;20556;-69
2022/12/03 11:36:05;;;;;;;29.03;13.10;;;;;;;;;;5015334;28;20217;-69
2022/12/03 11:38:36;;;;;;;32.03;13.40;;;;;;;;;;5019279;28;20211;-69
2022/12/03 11:41:15;;;;;;;33.50;12.87;;;;;;;;;;5016164;28;20727;-68
2022/12/03 11:43:52;;;;;;;30.47;13.00;;;;;;;;;;5027692;28;20247;-69
2022/12/03 11:46:28;;;;;;;34.10;13.70;;;;;;;;;;5030056;28;20728;-69
2022/12/03 11:48:56;;;;;;;30.50;13.60;;;;;;;;;;5023538;28;20185;-67
2022/12/03 11:51:23;;;;;;;32.43;13.50;;;;;;;;;;5021233;28;20187;-66
2022/12/03 11:53:51;;;;;;;29.47;12.97;;;;;;;;;;5025050;28;20573;-66
2022/12/03 11:56:23;;;;;;;32.17;12.70;;;;;;;;;;5011926;28;20265;-66
2022/12/03 11:58:58;;;;;;;32.73;13.43;;;;;;;;;;5007880;28;20186;-65
2022/12/03 12:01:41;;;;;;;31.27;12.87;;;;;;;;;;5020526;28;20234;-66
2022/12/03 12:04:25;;;;;;;33.30;13.93;;;;;;;;;;5009279;28;20209;-66
2022/12/03 12:06:51;;;;;;;39.53;15.93;;;;;;;;;;5010519;28;20214;-66
2022/12/03 12:09:52;;;;;;;39.30;15.33;;;;;;;;;;5008788;28;20206;-66
2022/12/03 12:12:39;;;;;;;41.23;15.93;;;;;;;;;;5012765;28;20185;-66
2022/12/03 12:15:33;;;;;;;44.13;17.17;;;;;;;;;;5015333;28;20190;-66
2022/12/03 12:18:33;;;;;;;41.13;17.00;;;;;;;;;;5028159;28;20189;-66
2022/12/03 12:21:36;;;;;;;47.10;18.77;;;;;;;;;;5020502;28;20186;-66
2022/12/03 12:24:28;;;;;;;53.47;19.40;;;;;;;;;;5013536;28;20351;-65
2022/12/03 12:26:54;;;;;;;51.73;20.60;;;;;;;;;;5013224;28;20612;-66
2022/12/03 12:29:19;;;;;;;53.47;21.60;;;;;;;;;;5012123;28;20182;-66
2022/12/03 12:31:45;;;;;;;55.43;21.03;;;;;;;;;;5020390;28;20575;-66
2022/12/03 12:34:11;;;;;;;57.53;22.20;;;;;;;;;;5011884;28;20216;-68
2022/12/03 12:36:36;;;;;;;64.37;23.30;;;;;;;;;;5016248;28;20194;-68
2022/12/03 12:39:09;;;;;;;59.57;23.40;;;;;;;;;;5023533;28;20186;-67
2022/12/03 12:41:34;;;;;;;61.17;23.67;;;;;;;;;;5025051;28;20174;-68
2022/12/03 12:44:00;;;;;;;59.33;24.07;;;;;;;;;;5021193;28;20344;-68
2022/12/03 12:46:25;;;;;;;58.20;23.77;;;;;;;;;;5010515;28;20296;-67
2022/12/03 12:48:51;;;;;;;55.47;21.87;;;;;;;;;;5011287;28;20265;-68
2022/12/03 12:51:20;;;;;;;55.27;20.23;;;;;;;;;;5030011;28;20189;-66
2022/12/03 12:53:45;;;;;;;50.30;20.43;;;;;;;;;;5024591;28;20597;-66
2022/12/03 12:56:26;;;;;;;59.90;22.10;;;;;;;;;;5016409;28;20194;-67
2022/12/03 12:58:52;;;;;;;59.13;21.70;;;;;;;;;;5012698;28;20248;-68
2022/12/03 13:01:28;;;;;;;54.10;21.20;;;;;;;;;;5024167;28;20252;-68
2022/12/03 13:03:55;;;;;;;61.37;22.67;;;;;;;;;;5021670;28;20578;-67
2022/12/03 13:06:26;;;;;;;54.60;21.93;;;;;;;;;;5016986;28;20244;-68
2022/12/03 13:08:51;;;;;;;62.10;22.73;;;;;;;;;;5013987;28;20201;-68
2022/12/03 13:11:40;;;;;;;58.93;21.80;;;;;;;;;;5008544;28;20183;-68
2022/12/03 13:14:21;;;;;;;56.60;19.40;;;;;;;;;;5009796;28;20175;-68
2022/12/03 13:16:49;;;;;;;57.17;19.93;;;;;;;;;;5007642;28;20189;-68
2022/12/03 13:19:22;;;;;;;63.67;20.87;;;;;;;;;;5011521;28;20182;-68
2022/12/03 13:21:49;;;;;;;57.00;20.53;;;;;;;;;;5016770;28;20190;-68
2022/12/03 13:24:36;;;;;;;53.90;21.57;;;;;;;;;;5019912;28;20225;-68
2022/12/03 13:27:18;;;;;;;58.20;22.07;;;;;;;;;;5010620;28;20187;-68
2022/12/03 13:29:45;;;;;;;59.90;21.00;;;;;;;;;;5026936;28;20737;-68
2022/12/03 13:32:14;;;;;;;63.53;21.87;;;;;;;;;;5028821;28;20551;-68
2022/12/03 13:34:41;;;;;;;57.60;21.80;;;;;;;;;;5028971;28;20633;-68
2022/12/03 13:37:14;;;;;;;57.67;21.80;;;;;;;;;;5026505;28;20647;-68
2022/12/03 13:39:46;;;;;;;59.20;22.27;;;;;;;;;;5022680;28;20182;-68
2022/12/03 13:42:37;;;;;;;60.80;21.77;;;;;;;;;;5024395;28;20279;-68
2022/12/03 13:45:28;;;;;;;57.43;20.70;;;;;;;;;;5018969;28;20665;-68
2022/12/03 13:47:57;;;;;;;59.37;20.43;;;;;;;;;;5019169;28;20557;-68
2022/12/03 13:50:23;;;;;;;52.77;19.83;;;;;;;;;;5028006;28;20668;-68
2022/12/03 13:52:48;;;;;;;61.60;23.83;;;;;;;;;;5024057;28;20174;-66
2022/12/03 13:55:25;;;;;;;64.80;22.87;;;;;;;;;;5035206;28;20185;-66
2022/12/03 13:57:51;;;;;;;60.23;22.20;;;;;;;;;;5023857;28;20209;-66
2022/12/03 14:00:16;;;;;;;59.27;22.20;;;;;;;;;;5035223;28;20241;-68
2022/12/03 14:02:42;;;;;;;65.87;22.13;;;;;;;;;;5030129;28;20210;-66
2022/12/03 14:05:07;;;;;;;64.43;24.07;;;;;;;;;;5029525;28;20173;-68
2022/12/03 14:07:33;;;;;;;60.83;21.57;;;;;;;;;;5028840;28;20548;-67
2022/12/03 14:09:58;;;;;;;59.57;21.77;;;;;;;;;;5023096;28;20682;-68
2022/12/03 14:12:27;;;;;;;60.40;23.07;;;;;;;;;;5026855;28;20546;-68
2022/12/03 14:14:53;;;;;;;65.20;22.83;;;;;;;;;;5035769;28;20646;-69
2022/12/03 14:17:19;;;;;;;60.17;22.73;;;;;;;;;;5037235;28;20193;-66
2022/12/03 14:19:44;;;;;;;72.57;25.47;;;;;;;;;;5033331;28;20437;-66
2022/12/03 14:22:10;;;;;;;61.80;23.80;;;;;;;;;;5012484;28;20233;-67
2022/12/03 14:24:36;;;;;;;63.03;23.90;;;;;;;;;;5010629;28;20511;-66
2022/12/03 14:27:01;;;;;;;63.93;24.53;;;;;;;;;;5016950;28;20222;-66
2022/12/03 14:29:27;;;;;;;66.43;24.90;;;;;;;;;;5023206;28;20210;-66
2022/12/03 14:31:52;;;;;;;71.87;25.23;;;;;;;;;;5020348;28;20190;-66
2022/12/03 14:34:18;;;;;;;58.63;21.93;;;;;;;;;;5025688;28;20542;-66
2022/12/03 14:36:43;;;;;;;64.30;23.67;;;;;;;;;;5017756;28;20286;-66
2022/12/03 14:39:09;;;;;;;70.57;25.17;;;;;;;;;;5041484;28;20656;-66
2022/12/03 14:44:43;;;;;;;59.77;22.17;;;;;;;;;;4982557;28;20287;-67
2022/12/03 14:47:08;;;;;;;64.50;23.73;;;;;;;;;;4981444;28;20721;-67
2022/12/03 14:49:34;;;;;;;61.70;22.80;;;;;;;;;;5005923;28;20210;-67
2022/12/03 14:51:59;;;;;;;66.47;23.60;;;;;;;;;;5022196;28;20229;-67